Station Historical Data
Daily Summary for November 5, 2017 Units:  Metric    English   Both
« Previous Day
Next Day »
Daily Weekly Monthly Yearly Custom
  High: Low: Average:
Temperature: 22.2 °C 16.7 °C 18.3 °C
Dew Point: 18.2 °C 15.8 °C 16.7 °C
Humidity: 95% 75% 91%
Wind Speed: 3.2km/h 0km/h 0.3km/h
Wind Gust: 3.2km/h - -
Wind- - WNW
Pressure: 1021.6 hPa 1018.2 hPa -
Precipitation: 0 mm    
Historical Graphs
 
 
Tabular Data for November 5, 2017
Time Temperature Dew Point Pressure Wind Wind Speed Wind Gust Humidity Rainfall Rate (Hourly) solar Conditions
00:04 17.6 °C 16.6 °C 1019.9 hPa Calm     94% 0 mm WeatherDisplay:10.37 W/m2 SCT
00:09 17.6 °C 16.6 °C 1019.9 hPa Calm     94% 0 mm WeatherDisplay:10.37 W/m2 SCT
00:14 17.5 °C 16.5 °C 1019.9 hPa Calm     94% 0 mm WeatherDisplay:10.37 W/m2 SCT
00:19 17.4 °C 16.4 °C 1019.9 hPa Calm     94% 0 mm WeatherDisplay:10.37 W/m2 SCT
00:24 17.3 °C 16.3 °C 1019.9 hPa Calm     94% 0 mm WeatherDisplay:10.37 W/m2 SCT
00:29 17.4 °C 16.4 °C 1019.9 hPa Calm     94% 0 mm WeatherDisplay:10.37 W/m2 SCT
00:34 17.3 °C 16.3 °C 1019.9 hPa Calm     94% 0 mm WeatherDisplay:10.37 W/m2 SCT
00:39 17.3 °C 16.3 °C 1019.9 hPa Calm     94% 0 mm WeatherDisplay:10.37 W/m2 SCT
00:44 17.3 °C 16.3 °C 1019.9 hPa Calm     94% 0 mm WeatherDisplay:10.37 W/m2 SCT
00:49 17.2 °C 16.2 °C 1019.9 hPa Calm     94% 0 mm WeatherDisplay:10.37 W/m2 SCT
00:54 17.3 °C 16.3 °C 1019.9 hPa Calm     94% 0 mm WeatherDisplay:10.37 W/m2 SCT
00:59 17.4 °C 16.4 °C 1019.9 hPa Calm     94% 0 mm WeatherDisplay:10.37 W/m2 SCT
01:04 17.4 °C 16.4 °C 1019.9 hPa Calm     94% 0 mm WeatherDisplay:10.37 W/m2 BKN
01:09 17.4 °C 16.4 °C 1019.9 hPa Calm     94% 0 mm WeatherDisplay:10.37 W/m2 BKN
01:14 17.4 °C 16.4 °C 1019.9 hPa Calm     94% 0 mm WeatherDisplay:10.37 W/m2 BKN
01:19 17.4 °C 16.4 °C 1019.9 hPa Calm     94% 0 mm WeatherDisplay:10.37 W/m2 BKN
01:24 17.4 °C 16.4 °C 1019.9 hPa Calm     94% 0 mm WeatherDisplay:10.37 W/m2 BKN
01:29 17.3 °C 16.3 °C 1019.9 hPa Calm     94% 0 mm WeatherDisplay:10.37 W/m2 BKN
01:35 17.3 °C 16.3 °C 1019.9 hPa Calm     94% 0 mm WeatherDisplay:10.37 W/m2 BKN
01:40 17.3 °C 16.3 °C 1019.9 hPa Calm     94% 0 mm WeatherDisplay:10.37 W/m2 BKN
01:45 17.3 °C 16.3 °C 1019.9 hPa Calm     94% 0 mm WeatherDisplay:10.37 W/m2 BKN
01:50 17.3 °C 16.3 °C 1019.5 hPa Calm     94% 0 mm WeatherDisplay:10.37 W/m2 BKN
01:55 17.2 °C 16.3 °C 1019.5 hPa Calm     94% 0 mm WeatherDisplay:10.37 W/m2 OVC
01:00 17.2 °C 16.2 °C 1019.5 hPa Calm     94% 0 mm WeatherDisplay:10.37 W/m2 OVC
01:05 17.2 °C 16.2 °C 1019.5 hPa Calm     94% 0 mm WeatherDisplay:10.37 W/m2 OVC
01:10 17.2 °C 16.2 °C 1019.5 hPa Calm     94% 0 mm WeatherDisplay:10.37 W/m2 OVC
01:15 17.1 °C 16.1 °C 1019.5 hPa Calm     94% 0 mm WeatherDisplay:10.37 W/m2 OVC
01:20 17.1 °C 16.1 °C 1019.5 hPa Calm     94% 0 mm WeatherDisplay:10.37 W/m2 OVC
01:25 17.1 °C 16.1 °C 1019.5 hPa Calm     94% 0 mm WeatherDisplay:10.37 W/m2 BKN
01:30 17.1 °C 16.1 °C 1019.5 hPa Calm     94% 0 mm WeatherDisplay:10.37 W/m2 BKN
01:35 17 °C 16 °C 1019.5 hPa Calm     94% 0 mm WeatherDisplay:10.37 W/m2 BKN
01:40 16.9 °C 15.9 °C 1019.5 hPa Calm     94% 0 mm WeatherDisplay:10.37 W/m2 BKN
01:45 16.9 °C 15.9 °C 1019.5 hPa Calm     94% 0 mm WeatherDisplay:10.37 W/m2 BKN
01:50 16.9 °C 15.9 °C 1019.5 hPa Calm     94% 0 mm WeatherDisplay:10.37 W/m2 BKN
01:55 16.9 °C 15.9 °C 1019.5 hPa Calm     94% 0 mm WeatherDisplay:10.37 W/m2 CLR
02:00 16.8 °C 15.9 °C 1019.2 hPa Calm     94% 0 mm WeatherDisplay:10.37 W/m2 CLR
02:05 16.8 °C 15.9 °C 1019.5 hPa Calm     94% 0 mm WeatherDisplay:10.37 W/m2 CLR
02:10 16.8 °C 15.8 °C 1019.5 hPa Calm     94% 0 mm WeatherDisplay:10.37 W/m2 CLR
02:15 16.7 °C 15.8 °C 1019.5 hPa Calm     94% 0 mm WeatherDisplay:10.37 W/m2 CLR
02:20 16.7 °C 15.8 °C 1019.5 hPa Calm     94% 0 mm WeatherDisplay:10.37 W/m2 CLR
02:25 16.7 °C 15.8 °C 1019.5 hPa Calm     94% 0 mm WeatherDisplay:10.37 W/m2 CLR
02:30 16.7 °C 15.8 °C 1019.2 hPa Calm     94% 0 mm WeatherDisplay:10.37 W/m2 CLR
02:35 16.9 °C 16 °C 1019.2 hPa Calm     94% 0 mm WeatherDisplay:10.37 W/m2 CLR
02:40 17.1 °C 16.1 °C 1019.2 hPa Calm     94% 0 mm WeatherDisplay:10.37 W/m2 CLR
02:45 17 °C 16 °C 1019.2 hPa Calm     94% 0 mm WeatherDisplay:10.37 W/m2 CLR
02:50 17 °C 16 °C 1019.2 hPa Calm     94% 0 mm WeatherDisplay:10.37 W/m2 CLR
02:55 16.9 °C 16 °C 1019.2 hPa Calm     94% 0 mm WeatherDisplay:10.37 W/m2 FEW
03:00 16.9 °C 15.9 °C 1019.2 hPa Calm     94% 0 mm WeatherDisplay:10.37 W/m2 FEW
03:05 16.9 °C 15.9 °C 1019.2 hPa Calm     94% 0 mm WeatherDisplay:10.37 W/m2 CLR
03:10 16.9 °C 15.9 °C 1019.2 hPa Calm     94% 0 mm WeatherDisplay:10.37 W/m2 CLR
03:15 16.9 °C 15.9 °C 1019.2 hPa Calm     94% 0 mm WeatherDisplay:10.37 W/m2 CLR
03:20 16.8 °C 15.9 °C 1019.2 hPa Calm     94% 0 mm WeatherDisplay:10.37 W/m2 CLR
03:25 16.8 °C 15.8 °C 1019.2 hPa Calm     94% 0 mm WeatherDisplay:10.37 W/m2 CLR
03:30 16.7 °C 15.8 °C 1019.2 hPa Calm     94% 0 mm WeatherDisplay:10.37 W/m2 CLR
03:35 16.8 °C 15.8 °C 1019.2 hPa Calm     94% 0 mm WeatherDisplay:10.37 W/m2 CLR
03:40 16.8 °C 15.8 °C 1019.5 hPa Calm     94% 0 mm WeatherDisplay:10.37 W/m2 CLR
03:45 16.9 °C 15.9 °C 1019.5 hPa Calm     94% 0 mm WeatherDisplay:10.37 W/m2 CLR
03:50 16.9 °C 15.9 °C 1019.5 hPa Calm     94% 0 mm WeatherDisplay:10.37 W/m2 CLR
03:55 17.1 °C 16.1 °C 1019.5 hPa WNW 1.9 km/h   94% 0 mm WeatherDisplay:10.37 W/m2 FEW
04:00 17.2 °C 16.2 °C 1019.5 hPa Calm     94% 0 mm WeatherDisplay:10.37 W/m2 FEW
04:05 17.3 °C 16.3 °C 1019.5 hPa Calm     94% 0 mm WeatherDisplay:10.37 W/m2 FEW
04:10 17.3 °C 16.3 °C 1019.9 hPa Calm     94% 0 mm WeatherDisplay:10.37 W/m2 FEW
04:15 17.3 °C 16.3 °C 1019.9 hPa Calm     94% 0 mm WeatherDisplay:10.37 W/m2 FEW
04:20 17.3 °C 16.3 °C 1019.9 hPa Calm     94% 0 mm WeatherDisplay:10.37 W/m2 FEW
04:25 17.3 °C 16.3 °C 1019.9 hPa Calm     94% 0 mm WeatherDisplay:10.37 W/m2 FEW
04:30 17.4 °C 16.4 °C 1019.9 hPa Calm     94% 0 mm WeatherDisplay:10.37 W/m2 FEW
04:35 17.3 °C 16.3 °C 1019.9 hPa Calm     94% 0 mm WeatherDisplay:10.37 W/m2 FEW
04:41 17.4 °C 16.4 °C 1019.9 hPa Calm     94% 0 mm WeatherDisplay:10.37 W/m2 FEW
04:46 17.4 °C 16.4 °C 1019.9 hPa Calm     94% 0 mm WeatherDisplay:10.37 W/m2 BKN
04:51 17.4 °C 16.4 °C 1019.9 hPa Calm     94% 0 mm WeatherDisplay:10.37 W/m2 CLR
04:56 17.3 °C 16.3 °C 1019.9 hPa Calm     94% 0 mm WeatherDisplay:10.37 W/m2 CLR
05:01 17.3 °C 16.3 °C 1019.9 hPa Calm     94% 0 mm WeatherDisplay:10.37 W/m2 OVC
05:06 17.3 °C 16.3 °C 1020.2 hPa West 1.9 km/h   94% 0 mm WeatherDisplay:10.37 W/m2 OVC
05:11 17.3 °C 16.3 °C 1020.2 hPa Calm     94% 0 mm WeatherDisplay:10.37 W/m2 OVC
05:16 17.3 °C 16.3 °C 1020.2 hPa Calm     94% 0 mm WeatherDisplay:10.37 W/m2 OVC
05:21 17.3 °C 16.3 °C 1020.2 hPa Calm     94% 0 mm WeatherDisplay:10.37 W/m2 OVC
05:27 17.3 °C 16.3 °C 1020.2 hPa Calm     94% 0 mm WeatherDisplay:10.37 W/m2 OVC
05:32 17.3 °C 16.3 °C 1020.2 hPa Calm     94% 0 mm WeatherDisplay:10.37 W/m2 OVC
05:37 17.3 °C 16.3 °C 1020.2 hPa West 1.9 km/h 1.9 km/h 94% 0 mm WeatherDisplay:10.37 W/m2 OVC
05:42 17.3 °C 16.3 °C 1020.2 hPa Calm     94% 0 mm WeatherDisplay:10.37 W/m2 OVC
05:47 17.3 °C 16.3 °C 1020.2 hPa Calm     94% 0 mm WeatherDisplay:10.37 W/m2 OVC
05:52 17.3 °C 16.3 °C 1020.2 hPa West 1.9 km/h   94% 0 mm WeatherDisplay:10.37 W/m2 OVC
05:57 17.3 °C 16.3 °C 1020.2 hPa Calm     94% 0 mm WeatherDisplay:10.37 W/m2 OVC
06:02 17.3 °C 16.3 °C 1020.2 hPa West 1.9 km/h   94% 0 mm WeatherDisplay:10.37 W/m2 OVC
06:07 17.3 °C 16.3 °C 1020.2 hPa Calm     94% 0 mm WeatherDisplay:10.37 W/m2 OVC
06:12 17.3 °C 16.3 °C 1020.2 hPa West 1.6 km/h   94% 0 mm WeatherDisplay:10.37 W/m2 OVC
06:17 17.3 °C 16.3 °C 1020.2 hPa Calm     94% 0 mm WeatherDisplay:10.37 W/m2 OVC
06:22 17.3 °C 16.3 °C 1020.5 hPa West 1.9 km/h 1.9 km/h 94% 0 mm WeatherDisplay:10.37 W/m2 OVC
06:27 17.3 °C 16.3 °C 1020.5 hPa Calm     94% 0 mm WeatherDisplay:10.37 W/m2 OVC
06:32 17.3 °C 16.3 °C 1020.5 hPa West 1.6 km/h 1.6 km/h 94% 0 mm WeatherDisplay:10.37 W/m2 OVC
06:37 17.4 °C 16.4 °C 1020.2 hPa West 1.9 km/h 1.9 km/h 94% 0 mm WeatherDisplay:10.37 W/m2 OVC
06:42 17.4 °C 16.4 °C 1020.2 hPa Calm     94% 0 mm WeatherDisplay:10.37 W/m2 OVC
06:47 17.4 °C 16.4 °C 1020.2 hPa Calm     94% 0 mm WeatherDisplay:10.37 W/m2 OVC
06:52 17.4 °C 16.4 °C 1020.5 hPa West 1.9 km/h   94% 0 mm WeatherDisplay:10.37 W/m2 OVC
06:58 17.4 °C 16.4 °C 1020.5 hPa Calm     94% 0 mm WeatherDisplay:10.37 W/m2 OVC
07:03 17.4 °C 16.4 °C 1020.5 hPa Calm     94% 0 mm WeatherDisplay:10.37 W/m2 OVC
07:08 17.4 °C 16.4 °C 1020.5 hPa Calm     94% 0 mm WeatherDisplay:10.37 W/m2 OVC
07:13 17.4 °C 16.4 °C 1020.9 hPa Calm   0.2 km/h 94% 0 mm WeatherDisplay:10.37 W/m2 OVC
07:18 17.4 °C 16.4 °C 1020.9 hPa Calm     94% 0 mm WeatherDisplay:10.37 W/m2 OVC
07:23 17.5 °C 16.5 °C 1020.9 hPa Calm     94% 0 mm WeatherDisplay:10.37 W/m2 OVC
07:28 17.5 °C 16.5 °C 1020.9 hPa Calm     94% 0 mm WeatherDisplay:10.37 W/m2 OVC
07:33 17.5 °C 16.5 °C 1020.9 hPa Calm     94% 0 mm WeatherDisplay:10.37 W/m2 OVC
07:38 17.6 °C 16.6 °C 1021.2 hPa Calm     94% 0 mm WeatherDisplay:10.37 W/m2 OVC
07:43 17.6 °C 16.6 °C 1021.2 hPa West 1.9 km/h   94% 0 mm WeatherDisplay:10.37 W/m2 OVC
07:48 17.6 °C 16.6 °C 1021.2 hPa Calm     94% 0 mm WeatherDisplay:10.37 W/m2 OVC
07:53 17.6 °C 16.6 °C 1021.2 hPa Calm     94% 0 mm WeatherDisplay:10.37 W/m2 OVC
07:58 17.6 °C 16.6 °C 1021.2 hPa Calm     94% 0 mm WeatherDisplay:10.37 W/m2 OVC
08:03 17.6 °C 16.6 °C 1021.2 hPa Calm     94% 0 mm WeatherDisplay:10.37 W/m2 OVC
08:08 17.6 °C 16.6 °C 1021.2 hPa Calm     94% 0 mm WeatherDisplay:10.37 W/m2 OVC
08:13 17.6 °C 16.6 °C 1021.2 hPa Calm     94% 0 mm WeatherDisplay:10.37 W/m2 OVC
08:18 17.7 °C 16.7 °C 1021.2 hPa Calm     94% 0 mm WeatherDisplay:10.37 W/m2 OVC
08:23 17.7 °C 16.7 °C 1021.2 hPa Calm     94% 0 mm WeatherDisplay:10.37 W/m2 OVC
08:28 17.7 °C 16.7 °C 1021.6 hPa Calm     94% 0 mm WeatherDisplay:10.37 W/m2 OVC
08:33 17.7 °C 16.7 °C 1021.6 hPa Calm     94% 0 mm WeatherDisplay:10.37 W/m2 OVC
08:38 17.7 °C 16.7 °C 1021.2 hPa Calm     94% 0 mm WeatherDisplay:10.37 W/m2 OVC
08:43 17.8 °C 16.8 °C 1021.2 hPa Calm     94% 0 mm WeatherDisplay:10.37 W/m2 OVC
08:48 17.8 °C 16.8 °C 1021.6 hPa Calm     94% 0 mm WeatherDisplay:10.37 W/m2 OVC
08:53 17.8 °C 16.8 °C 1021.6 hPa Calm     94% 0 mm WeatherDisplay:10.37 W/m2 OVC
08:58 17.9 °C 17.1 °C 1021.6 hPa Calm     95% 0 mm WeatherDisplay:10.37 W/m2 OVC
09:03 17.9 °C 16.9 °C 1021.6 hPa Calm     94% 0 mm WeatherDisplay:10.37 W/m2 OVC
09:09 17.9 °C 16.9 °C 1021.6 hPa Calm     94% 0 mm WeatherDisplay:10.37 W/m2 OVC
09:14 18 °C 17.2 °C 1021.6 hPa WNW 1.9 km/h 1.9 km/h 95% 0 mm WeatherDisplay:10.37 W/m2 OVC
09:19 17.9 °C 16.9 °C 1021.6 hPa WNW 1.9 km/h 1.9 km/h 94% 0 mm WeatherDisplay:10.37 W/m2 OVC
09:24 17.9 °C 16.9 °C 1021.6 hPa Calm     94% 0 mm WeatherDisplay:10.37 W/m2 OVC
09:29 18 °C 17 °C 1021.6 hPa WNW 1.9 km/h   94% 0 mm WeatherDisplay:10.37 W/m2 OVC
09:34 18.1 °C 17.1 °C 1021.2 hPa West 1.9 km/h 1.9 km/h 94% 0 mm WeatherDisplay:10.37 W/m2 OVC
09:39 18.1 °C 17.1 °C 1021.6 hPa Calm     94% 0 mm WeatherDisplay:10.37 W/m2 OVC
09:49 18.1 °C 17.1 °C 1021.6 hPa Calm     94% 0 mm WeatherDisplay:10.37 W/m2 OVC
09:54 18.1 °C 17.1 °C 1021.6 hPa NW 1.9 km/h 1.9 km/h 94% 0 mm WeatherDisplay:10.37 W/m2 OVC
09:59 18.1 °C 17.1 °C 1021.6 hPa Calm     94% 0 mm WeatherDisplay:10.37 W/m2 OVC
10:04 18.2 °C 17.2 °C 1021.6 hPa Calm     94% 0 mm WeatherDisplay:10.37 W/m2 OVC
10:09 18.2 °C 17.2 °C 1021.6 hPa Calm     94% 0 mm WeatherDisplay:10.37 W/m2 OVC
10:14 18.2 °C 17.2 °C 1021.6 hPa West 1.9 km/h 1.9 km/h 94% 0 mm WeatherDisplay:10.37 W/m2 OVC
10:19 18.2 °C 17.2 °C 1021.6 hPa Calm     94% 0 mm WeatherDisplay:10.37 W/m2 OVC
10:24 18.2 °C 17.2 °C 1021.6 hPa Calm   0.2 km/h 94% 0 mm WeatherDisplay:10.37 W/m2 OVC
10:29 18.2 °C 17.2 °C 1021.6 hPa Calm     94% 0 mm WeatherDisplay:10.37 W/m2 OVC
10:34 18.2 °C 17.2 °C 1021.6 hPa Calm     94% 0 mm WeatherDisplay:10.37 W/m2 OVC
10:39 18.3 °C 17.3 °C 1021.6 hPa Calm     94% 0 mm WeatherDisplay:10.37 W/m2 OVC
10:44 18.3 °C 17.3 °C 1021.6 hPa Calm     94% 0 mm WeatherDisplay:10.37 W/m2 OVC
10:50 18.3 °C 17.3 °C 1021.6 hPa Calm     94% 0 mm WeatherDisplay:10.37 W/m2 OVC
10:55 18.3 °C 17.3 °C 1021.6 hPa Calm     94% 0 mm WeatherDisplay:10.37 W/m2 OVC
11:00 18.3 °C 17.3 °C 1021.6 hPa Calm     94% 0 mm WeatherDisplay:10.37 W/m2 OVC
11:05 18.3 °C 17.3 °C 1021.2 hPa Calm     94% 0 mm WeatherDisplay:10.37 W/m2 OVC
11:10 18.3 °C 17.2 °C 1021.2 hPa Calm     93% 0 mm WeatherDisplay:10.37 W/m2 OVC
11:15 18.4 °C 17.2 °C 1021.2 hPa Calm   1.6 km/h 93% 0 mm WeatherDisplay:10.37 W/m2 OVC
11:20 18.4 °C 17.3 °C 1021.2 hPa Calm   1.6 km/h 93% 0 mm WeatherDisplay:10.37 W/m2 OVC
11:25 18.4 °C 17.3 °C 1021.2 hPa Calm     93% 0 mm WeatherDisplay:10.37 W/m2 OVC
11:30 18.6 °C 17.4 °C 1021.2 hPa Calm     93% 0 mm WeatherDisplay:10.37 W/m2 OVC
11:35 18.7 °C 17.6 °C 1021.2 hPa Calm   1.6 km/h 93% 0 mm WeatherDisplay:10.37 W/m2 OVC
11:40 18.8 °C 17.5 °C 1021.2 hPa Calm   1.6 km/h 92% 0 mm WeatherDisplay:10.37 W/m2 OVC
11:45 19.1 °C 17.8 °C 1021.2 hPa West 1.9 km/h   92% 0 mm WeatherDisplay:10.37 W/m2 OVC
11:50 19.3 °C 17.6 °C 1020.9 hPa West 1.9 km/h 1.9 km/h 90% 0 mm WeatherDisplay:10.37 W/m2 OVC
11:55 19.6 °C 17.9 °C 1020.9 hPa West 1.9 km/h   90% 0 mm WeatherDisplay:10.37 W/m2 OVC
12:00 19.8 °C 17.9 °C 1020.9 hPa Calm     89% 0 mm WeatherDisplay:10.37 W/m2 OVC
12:06 19.8 °C 17.8 °C 1020.9 hPa Calm     88% 0 mm WeatherDisplay:10.37 W/m2 OVC
12:11 19.9 °C 17.5 °C 1020.5 hPa Calm     86% 0 mm WeatherDisplay:10.37 W/m2 OVC
12:16 19.9 °C 17.6 °C 1020.5 hPa WNW 1.9 km/h   86% 0 mm WeatherDisplay:10.37 W/m2 OVC
12:21 19.9 °C 17.7 °C 1020.5 hPa Calm     87% 0 mm WeatherDisplay:10.37 W/m2 OVC
12:26 19.9 °C 17.7 °C 1020.5 hPa WNW 1.9 km/h   87% 0 mm WeatherDisplay:10.37 W/m2 OVC
12:31 19.9 °C 17.5 °C 1020.5 hPa West 1.9 km/h   86% 0 mm WeatherDisplay:10.37 W/m2 OVC
12:36 19.9 °C 17.7 °C 1020.5 hPa Calm     87% 0 mm WeatherDisplay:10.37 W/m2 OVC
12:41 19.9 °C 17.7 °C 1020.2 hPa Calm     87% 0 mm WeatherDisplay:10.37 W/m2 OVC
12:46 20.1 °C 17.8 °C 1020.2 hPa Calm     87% 0 mm WeatherDisplay:10.37 W/m2 OVC
12:51 20.1 °C 17.7 °C 1020.2 hPa West 1.9 km/h 1.9 km/h 86% 0 mm WeatherDisplay:10.37 W/m2 OVC
12:56 20.2 °C 17.6 °C 1020.2 hPa West 1.9 km/h 1.9 km/h 85% 0 mm WeatherDisplay:10.37 W/m2 OVC
13:01 20.3 °C 17.6 °C 1020.2 hPa NW 1.9 km/h   84% 0 mm WeatherDisplay:10.37 W/m2 OVC
13:06 20.4 °C 17.8 °C 1019.9 hPa Calm     85% 0 mm WeatherDisplay:10.37 W/m2 OVC
13:11 20.6 °C 18.1 °C 1019.9 hPa Calm     86% 0 mm WeatherDisplay:10.37 W/m2 OVC
13:16 20.7 °C 17.9 °C 1019.9 hPa WNW 1.9 km/h 1.9 km/h 84% 0 mm WeatherDisplay:10.37 W/m2 OVC
13:17 20.7 °C 17.9 °C 1019.9 hPa WNW 1.6 km/h   84% 0 mm WeatherDisplay:10.37 W/m2 OVC
13:22 20.9 °C 18.1 °C 1019.9 hPa Calm     84% 0 mm WeatherDisplay:10.37 W/m2 OVC
13:27 20.9 °C 17.8 °C 1019.5 hPa WNW 1.9 km/h 1.9 km/h 82% 0 mm WeatherDisplay:10.37 W/m2 OVC
13:37 21 °C 18 °C 1019.5 hPa West 1.9 km/h 1.9 km/h 83% 0 mm WeatherDisplay:10.37 W/m2 OVC
13:43 20.9 °C 17.9 °C 1019.5 hPa Calm     83% 0 mm WeatherDisplay:10.37 W/m2 OVC
13:48 20.8 °C 17.8 °C 1019.2 hPa Calm     83% 0 mm WeatherDisplay:10.37 W/m2 OVC
13:53 20.8 °C 17.8 °C 1019.2 hPa Calm     83% 0 mm WeatherDisplay:10.37 W/m2 OVC
13:58 20.9 °C 17.9 °C 1019.5 hPa WNW 1.9 km/h   83% 0 mm WeatherDisplay:10.37 W/m2 OVC
14:03 20.9 °C 17.8 °C 1019.5 hPa WNW 1.9 km/h   82% 0 mm WeatherDisplay:10.37 W/m2 BKN
14:08 20.9 °C 17.7 °C 1019.2 hPa Calm     82% 0 mm WeatherDisplay:10.37 W/m2 BKN
14:13 21.1 °C 17.9 °C 1019.2 hPa Calm     82% 0 mm WeatherDisplay:10.37 W/m2 BKN
14:18 21.2 °C 17.9 °C 1019.2 hPa NNW 1.9 km/h 1.9 km/h 82% 0 mm WeatherDisplay:10.37 W/m2 BKN
14:23 21.2 °C 17.9 °C 1019.2 hPa Calm     82% 0 mm WeatherDisplay:10.37 W/m2 BKN
14:33 21.6 °C 18.2 °C 1018.8 hPa Calm     81% 0 mm WeatherDisplay:10.37 W/m2 BKN
14:38 21.6 °C 17.6 °C 1018.8 hPa West 3.2 km/h 3.2 km/h 78% 0 mm WeatherDisplay:10.37 W/m2 BKN
14:43 21.7 °C 17.7 °C 1018.8 hPa West 1.9 km/h 1.9 km/h 78% 0 mm WeatherDisplay:10.37 W/m2 SCT
14:48 21.7 °C 17.9 °C 1018.8 hPa Calm     79% 0 mm WeatherDisplay:10.37 W/m2 SCT
14:53 21.7 °C 17.7 °C 1018.8 hPa West 1.9 km/h 1.9 km/h 78% 0 mm WeatherDisplay:10.37 W/m2 SCT
14:58 21.8 °C 17.8 °C 1018.8 hPa Calm     78% 0 mm WeatherDisplay:10.37 W/m2 SCT
15:03 21.8 °C 18 °C 1018.8 hPa Calm     79% 0 mm WeatherDisplay:10.37 W/m2 SCT
15:08 21.7 °C 17.7 °C 1018.8 hPa Calm     78% 0 mm WeatherDisplay:10.37 W/m2 SCT
15:13 21.8 °C 18 °C 1018.5 hPa Calm     79% 0 mm WeatherDisplay:10.37 W/m2 SCT
15:18 21.9 °C 17.7 °C 1018.5 hPa Calm     77% 0 mm WeatherDisplay:10.37 W/m2 SCT
15:24 21.9 °C 17.3 °C 1018.5 hPa West 1.9 km/h   75% 0 mm WeatherDisplay:10.37 W/m2 SCT
15:29 22.1 °C 18.1 °C 1018.5 hPa West 1.9 km/h   78% 0 mm WeatherDisplay:10.37 W/m2 SCT
15:34 22.1 °C 17.8 °C 1018.5 hPa Calm     77% 0 mm WeatherDisplay:10.37 W/m2 SCT
15:39 22.1 °C 18.1 °C 1018.5 hPa Calm     78% 0 mm WeatherDisplay:10.37 W/m2 SCT
15:44 22.1 °C 18.1 °C 1018.5 hPa Calm     78% 0 mm WeatherDisplay:10.37 W/m2 SCT
15:49 22.2 °C 17.9 °C 1018.5 hPa Calm     77% 0 mm WeatherDisplay:10.37 W/m2 SCT
15:54 22.2 °C 18.2 °C 1018.2 hPa Calm     78% 0 mm WeatherDisplay:10.37 W/m2 SCT
15:59 22.1 °C 17.8 °C 1018.5 hPa Calm     77% 0 mm WeatherDisplay:10.37 W/m2 SCT
16:04 22.1 °C 18.1 °C 1018.5 hPa Calm     78% 0 mm WeatherDisplay:10.37 W/m2 SCT
16:09 21.9 °C 17.7 °C 1018.2 hPa Calm     77% 0 mm WeatherDisplay:10.37 W/m2 SCT
16:14 21.9 °C 17.7 °C 1018.2 hPa Calm     77% 0 mm WeatherDisplay:10.37 W/m2 SCT
16:19 21.8 °C 17.8 °C 1018.2 hPa Calm     78% 0 mm WeatherDisplay:10.37 W/m2 SCT
16:24 21.6 °C 17.8 °C 1018.2 hPa Calm     79% 0 mm WeatherDisplay:10.37 W/m2 SCT
16:29 21.4 °C 17.7 °C 1018.2 hPa Calm     79% 0 mm WeatherDisplay:10.37 W/m2 SCT
16:34 21.3 °C 17.7 °C 1018.2 hPa Calm     80% 0 mm WeatherDisplay:10.37 W/m2 SCT
16:40 21.2 °C 17.8 °C 1018.2 hPa Calm     81% 0 mm WeatherDisplay:10.37 W/m2 SCT
16:45 20.9 °C 17.7 °C 1018.5 hPa Calm     82% 0 mm WeatherDisplay:10.37 W/m2 SCT
16:50 20.7 °C 17.7 °C 1018.2 hPa Calm     83% 0 mm WeatherDisplay:10.37 W/m2 SCT
16:55 20.5 °C 17.7 °C 1018.5 hPa Calm     84% 0 mm WeatherDisplay:10.37 W/m2 SCT
17:00 20.3 °C 17.6 °C 1018.2 hPa Calm     84% 0 mm WeatherDisplay:10.37 W/m2 SCT
17:05 20.3 °C 17.7 °C 1018.5 hPa Calm     85% 0 mm WeatherDisplay:10.37 W/m2 SCT
17:10 20.2 °C 17.6 °C 1018.5 hPa Calm     85% 0 mm WeatherDisplay:10.37 W/m2 SCT
17:15 20.1 °C 17.7 °C 1018.5 hPa Calm     86% 0 mm WeatherDisplay:10.37 W/m2 BKN
17:20 20.1 °C 17.7 °C 1018.2 hPa Calm     86% 0 mm WeatherDisplay:10.37 W/m2 BKN
17:25 19.9 °C 17.6 °C 1018.2 hPa Calm     86% 0 mm WeatherDisplay:10.37 W/m2 BKN
17:30 19.9 °C 17.5 °C 1018.2 hPa Calm     86% 0 mm WeatherDisplay:10.37 W/m2 BKN
17:35 19.8 °C 17.4 °C 1018.2 hPa Calm     86% 0 mm WeatherDisplay:10.37 W/m2 BKN
17:40 19.7 °C 17.5 °C 1018.2 hPa Calm     87% 0 mm WeatherDisplay:10.37 W/m2 BKN
17:45 19.6 °C 17.4 °C 1018.2 hPa Calm     87% 0 mm WeatherDisplay:10.37 W/m2 BKN
17:50 19.6 °C 17.3 °C 1018.2 hPa Calm     87% 0 mm WeatherDisplay:10.37 W/m2 BKN
17:55 19.4 °C 17.2 °C 1018.2 hPa Calm     87% 0 mm WeatherDisplay:10.37 W/m2 BKN
18:00 19.3 °C 17.3 °C 1018.2 hPa Calm     88% 0 mm WeatherDisplay:10.37 W/m2 BKN
18:05 19.2 °C 17.2 °C 1018.5 hPa Calm     88% 0 mm WeatherDisplay:10.37 W/m2 BKN
18:10 19.1 °C 17.1 °C 1018.2 hPa Calm     88% 0 mm WeatherDisplay:10.37 W/m2 BKN
18:15 19 °C 16.9 °C 1018.5 hPa Calm     88% 0 mm WeatherDisplay:10.37 W/m2 BKN
18:20 18.8 °C 16.8 °C 1018.5 hPa Calm     88% 0 mm WeatherDisplay:10.37 W/m2 BKN
18:25 18.7 °C 16.8 °C 1018.5 hPa Calm     89% 0 mm WeatherDisplay:10.37 W/m2 BKN
18:30 18.6 °C 16.7 °C 1018.5 hPa Calm     89% 0 mm WeatherDisplay:10.37 W/m2 BKN
18:35 18.4 °C 16.8 °C 1018.5 hPa Calm     90% 0 mm WeatherDisplay:10.37 W/m2 BKN
18:40 18.4 °C 16.8 °C 1018.5 hPa Calm     90% 0 mm WeatherDisplay:10.37 W/m2 BKN
18:45 18.3 °C 16.7 °C 1018.5 hPa Calm     90% 0 mm WeatherDisplay:10.37 W/m2 BKN
18:50 18.2 °C 16.6 °C 1018.5 hPa Calm     90% 0 mm WeatherDisplay:10.37 W/m2 BKN
18:55 18.1 °C 16.4 °C 1018.5 hPa Calm     90% 0 mm WeatherDisplay:10.37 W/m2 BKN
19:00 18 °C 16.5 °C 1018.5 hPa Calm     91% 0 mm WeatherDisplay:10.37 W/m2 BKN
19:05 17.9 °C 16.4 °C 1018.5 hPa Calm     91% 0 mm WeatherDisplay:10.37 W/m2 SCT
19:10 17.9 °C 16.4 °C 1018.5 hPa Calm     91% 0 mm WeatherDisplay:10.37 W/m2 SCT
19:15 17.9 °C 16.6 °C 1018.5 hPa Calm     92% 0 mm WeatherDisplay:10.37 W/m2 SCT
19:20 17.9 °C 16.6 °C 1018.5 hPa Calm     92% 0 mm WeatherDisplay:10.37 W/m2 SCT
19:25 17.8 °C 16.5 °C 1018.5 hPa Calm     92% 0 mm WeatherDisplay:10.37 W/m2 SCT
19:30 17.8 °C 16.5 °C 1018.5 hPa Calm     92% 0 mm WeatherDisplay:10.37 W/m2 SCT
19:36 17.7 °C 16.4 °C 1018.5 hPa Calm     92% 0 mm WeatherDisplay:10.37 W/m2 SCT
19:41 17.7 °C 16.3 °C 1018.8 hPa Calm     92% 0 mm WeatherDisplay:10.37 W/m2 SCT
19:46 17.7 °C 16.3 °C 1018.8 hPa Calm     92% 0 mm WeatherDisplay:10.37 W/m2 SCT
19:51 17.6 °C 16.3 °C 1018.8 hPa Calm     92% 0 mm WeatherDisplay:10.37 W/m2 SCT
19:56 17.5 °C 16.2 °C 1018.8 hPa Calm     92% 0 mm WeatherDisplay:10.37 W/m2 SCT
20:01 17.4 °C 16.1 °C 1018.8 hPa Calm     92% 0 mm WeatherDisplay:10.37 W/m2 BKN
20:06 17.3 °C 16 °C 1018.8 hPa Calm     92% 0 mm WeatherDisplay:10.37 W/m2 BKN
20:11 17.3 °C 15.9 °C 1018.8 hPa Calm     92% 0 mm WeatherDisplay:10.37 W/m2 BKN
20:16 17.2 °C 15.9 °C 1019.2 hPa Calm     92% 0 mm WeatherDisplay:10.37 W/m2 BKN
20:26 17.2 °C 16.1 °C 1019.2 hPa Calm     93% 0 mm WeatherDisplay:10.37 W/m2 BKN
20:31 17.3 °C 16.1 °C 1019.5 hPa Calm     93% 0 mm WeatherDisplay:10.37 W/m2 BKN
20:36 17.3 °C 16.1 °C 1019.5 hPa Calm     93% 0 mm WeatherDisplay:10.37 W/m2 BKN
20:41 17.4 °C 16.2 °C 1019.5 hPa Calm     93% 0 mm WeatherDisplay:10.37 W/m2 BKN
20:46 17.4 °C 16.3 °C 1019.5 hPa Calm     93% 0 mm WeatherDisplay:10.37 W/m2 BKN
20:52 17.4 °C 16.3 °C 1019.5 hPa Calm     93% 0 mm WeatherDisplay:10.37 W/m2 BKN
20:57 17.4 °C 16.3 °C 1019.5 hPa Calm     93% 0 mm WeatherDisplay:10.37 W/m2 BKN
21:02 17.4 °C 16.3 °C 1019.5 hPa Calm     93% 0 mm WeatherDisplay:10.37 W/m2 BKN
21:07 17.5 °C 16.3 °C 1019.5 hPa Calm     93% 0 mm WeatherDisplay:10.37 W/m2 BKN
21:12 17.6 °C 16.4 °C 1019.5 hPa Calm     93% 0 mm WeatherDisplay:10.37 W/m2 BKN
21:17 17.6 °C 16.4 °C 1019.5 hPa Calm     93% 0 mm WeatherDisplay:10.37 W/m2 BKN
21:22 17.5 °C 16.3 °C 1019.5 hPa Calm     93% 0 mm WeatherDisplay:10.37 W/m2 BKN
21:27 17.4 °C 16.3 °C 1019.5 hPa Calm     93% 0 mm WeatherDisplay:10.37 W/m2 BKN
21:32 17.4 °C 16.3 °C 1019.5 hPa Calm     93% 0 mm WeatherDisplay:10.37 W/m2 BKN
21:33 17.4 °C 16.2 °C 1019.5 hPa Calm     93% 0 mm WeatherDisplay:10.37 W/m2 BKN
21:38 17.4 °C 16.2 °C 1019.5 hPa Calm     93% 0 mm WeatherDisplay:10.37 W/m2 BKN
21:43 17.3 °C 16.2 °C 1019.5 hPa Calm     93% 0 mm WeatherDisplay:10.37 W/m2 BKN
21:49 17.3 °C 16.2 °C 1019.5 hPa Calm     93% 0 mm WeatherDisplay:10.37 W/m2 BKN
21:54 17.3 °C 16.1 °C 1019.5 hPa Calm     93% 0 mm WeatherDisplay:10.37 W/m2 BKN
21:59 17.2 °C 16.1 °C 1019.5 hPa Calm     93% 0 mm WeatherDisplay:10.37 W/m2 BKN
22:04 17.2 °C 16.1 °C 1019.5 hPa Calm     93% 0 mm WeatherDisplay:10.37 W/m2 BKN
22:09 17.3 °C 16.1 °C 1019.5 hPa Calm     93% 0 mm WeatherDisplay:10.37 W/m2 BKN
22:17 17.3 °C 16.1 °C 1019.5 hPa Calm     93% 0 mm WeatherDisplay:10.37 W/m2 BKN
22:21 17.3 °C 16.1 °C 1019.2 hPa Calm     93% 0 mm WeatherDisplay:10.37 W/m2 BKN
22:24 17.3 °C 16.3 °C 1019.5 hPa Calm     94% 0 mm WeatherDisplay:10.37 W/m2 BKN
22:25 17.3 °C 16.3 °C 1019.2 hPa Calm     94% 0 mm WeatherDisplay:10.37 W/m2 BKN
22:26 17.3 °C 16.3 °C 1019.5 hPa Calm     94% 0 mm WeatherDisplay:10.37 W/m2 BKN
22:29 17.3 °C 16.3 °C 1019.2 hPa Calm     94% 0 mm WeatherDisplay:10.37 W/m2 BKN
22:31 17.3 °C 16.3 °C 1019.2 hPa Calm     94% 0 mm WeatherDisplay:10.37 W/m2 BKN
22:36 17.2 °C 16.2 °C 1019.2 hPa Calm     94% 0 mm WeatherDisplay:10.37 W/m2 BKN
22:41 17.2 °C 16.2 °C 1019.2 hPa Calm     94% 0 mm WeatherDisplay:10.37 W/m2 BKN
22:46 17.2 °C 16.2 °C 1019.2 hPa Calm     94% 0 mm WeatherDisplay:10.37 W/m2 BKN
22:51 17.2 °C 16.2 °C 1019.2 hPa Calm     94% 0 mm WeatherDisplay:10.37 W/m2 BKN
22:56 17.2 °C 16.2 °C 1019.2 hPa Calm     94% 0 mm WeatherDisplay:10.37 W/m2 BKN
23:01 17.2 °C 16.2 °C 1019.2 hPa Calm     94% 0 mm WeatherDisplay:10.37 W/m2 BKN
23:06 17.1 °C 16.1 °C 1019.2 hPa Calm     94% 0 mm WeatherDisplay:10.37 W/m2 BKN
23:07 17.1 °C 16.1 °C 1019.2 hPa Calm     94% 0 mm WeatherDisplay:10.37 W/m2 BKN
23:12 17 °C 15.8 °C 1018.8 hPa Calm     93% 0 mm WeatherDisplay:10.37 W/m2 BKN
23:17 17.1 °C 16.1 °C 1018.8 hPa Calm     94% 0 mm WeatherDisplay:10.37 W/m2 BKN
23:22 17.1 °C 16.1 °C 1018.8 hPa Calm     94% 0 mm WeatherDisplay:10.37 W/m2 BKN
23:27 17.1 °C 16.1 °C 1018.8 hPa Calm     94% 0 mm WeatherDisplay:10.37 W/m2 BKN
23:32 17.1 °C 16.1 °C 1018.8 hPa Calm     94% 0 mm WeatherDisplay:10.37 W/m2 BKN
23:37 17 °C 16 °C 1018.8 hPa Calm     94% 0 mm WeatherDisplay:10.37 W/m2 BKN
23:42 17.1 °C 16.1 °C 1018.8 hPa Calm     94% 0 mm WeatherDisplay:10.37 W/m2 BKN
23:47 17.1 °C 16.1 °C 1018.8 hPa Calm     94% 0 mm WeatherDisplay:10.37 W/m2 BKN
23:52 17 °C 16 °C 1018.8 hPa Calm     94% 0 mm WeatherDisplay:10.37 W/m2 BKN
23:57 17 °C 16 °C 1018.8 hPa Calm     94% 0 mm WeatherDisplay:10.37 W/m2 BKN
Piedmont Bend
Compliments of Weather Underground - 4 mb